sensor_id;sensor_type;location;lat;lon;timestamp;pressure;altitude;pressure_sealevel;temperature;humidity
32251;BME280;41295;48.518;9.206;2023-03-13T00:01:25;96749.38;;;9.16;63.49
32251;BME280;41295;48.518;9.206;2023-03-13T00:03:28;96741.66;;;9.14;63.80
32251;BME280;41295;48.518;9.206;2023-03-13T00:05:34;96747.81;;;9.11;64.16
32251;BME280;41295;48.518;9.206;2023-03-13T00:07:36;96741.00;;;9.09;63.95
32251;BME280;41295;48.518;9.206;2023-03-13T00:09:40;96735.84;;;9.07;64.08
32251;BME280;41295;48.518;9.206;2023-03-13T00:11:44;96734.28;;;9.03;64.17
32251;BME280;41295;48.518;9.206;2023-03-13T00:13:47;96732.47;;;9.05;64.02
32251;BME280;41295;48.518;9.206;2023-03-13T00:15:58;96727.38;;;9.02;64.37
32251;BME280;41295;48.518;9.206;2023-03-13T00:18:01;96733.47;;;9.01;64.38
32251;BME280;41295;48.518;9.206;2023-03-13T00:20:04;96730.94;;;8.99;64.33
32251;BME280;41295;48.518;9.206;2023-03-13T00:22:07;96733.53;;;8.99;64.57
32251;BME280;41295;48.518;9.206;2023-03-13T00:24:10;96728.28;;;9.01;64.28
32251;BME280;41295;48.518;9.206;2023-03-13T00:26:16;96724.84;;;9.00;64.23
32251;BME280;41295;48.518;9.206;2023-03-13T00:28:19;96724.78;;;9.02;64.14
32251;BME280;41295;48.518;9.206;2023-03-13T00:30:22;96720.34;;;9.04;64.15
32251;BME280;41295;48.518;9.206;2023-03-13T00:32:24;96726.47;;;9.03;64.16
32251;BME280;41295;48.518;9.206;2023-03-13T00:34:27;96721.28;;;9.03;64.49
32251;BME280;41295;48.518;9.206;2023-03-13T00:36:31;96718.72;;;9.01;64.44
32251;BME280;41295;48.518;9.206;2023-03-13T00:38:34;96723.94;;;9.01;64.62
32251;BME280;41295;48.518;9.206;2023-03-13T00:40:37;96722.91;;;9.06;64.36
32251;BME280;41295;48.518;9.206;2023-03-13T00:42:41;96728.13;;;9.06;64.05
32251;BME280;41295;48.518;9.206;2023-03-13T00:44:44;96727.00;;;9.11;63.80
32251;BME280;41295;48.518;9.206;2023-03-13T00:46:46;96726.28;;;9.08;64.13
32251;BME280;41295;48.518;9.206;2023-03-13T00:48:49;96726.28;;;9.08;63.91
32251;BME280;41295;48.518;9.206;2023-03-13T00:50:52;96727.19;;;9.07;64.32
32251;BME280;41295;48.518;9.206;2023-03-13T00:52:55;96721.06;;;9.08;64.08
32251;BME280;41295;48.518;9.206;2023-03-13T00:54:57;96722.78;;;9.09;64.00
32251;BME280;41295;48.518;9.206;2023-03-13T00:57:00;96718.31;;;9.12;63.86
32251;BME280;41295;48.518;9.206;2023-03-13T00:59:04;96715.69;;;9.12;64.16
32251;BME280;41295;48.518;9.206;2023-03-13T01:01:08;96709.59;;;9.13;63.87
32251;BME280;41295;48.518;9.206;2023-03-13T01:03:10;96719.09;;;9.14;63.83
32251;BME280;41295;48.518;9.206;2023-03-13T01:05:13;96721.69;;;9.14;64.11
32251;BME280;41295;48.518;9.206;2023-03-13T01:07:16;96709.50;;;9.15;63.91
32251;BME280;41295;48.518;9.206;2023-03-13T01:09:18;96707.75;;;9.16;63.99
32251;BME280;41295;48.518;9.206;2023-03-13T01:11:22;96711.22;;;9.16;63.85
32251;BME280;41295;48.518;9.206;2023-03-13T01:13:26;96712.91;;;9.17;63.96
32251;BME280;41295;48.518;9.206;2023-03-13T01:15:29;96696.50;;;9.15;64.26
32251;BME280;41295;48.518;9.206;2023-03-13T01:17:32;96689.69;;;9.12;64.42
32251;BME280;41295;48.518;9.206;2023-03-13T01:19:35;96691.38;;;9.13;64.64
32251;BME280;41295;48.518;9.206;2023-03-13T01:21:37;96681.09;;;9.10;64.61
32251;BME280;41295;48.518;9.206;2023-03-13T01:23:40;96681.09;;;9.10;64.67
32251;BME280;41295;48.518;9.206;2023-03-13T01:25:43;96682.78;;;9.11;64.67
32251;BME280;41295;48.518;9.206;2023-03-13T01:27:46;96676.75;;;9.11;64.73
32251;BME280;41295;48.518;9.206;2023-03-13T01:29:48;96675.91;;;9.10;64.51
32251;BME280;41295;48.518;9.206;2023-03-13T01:31:52;96664.56;;;9.11;64.51
32251;BME280;41295;48.518;9.206;2023-03-13T01:33:56;96664.56;;;9.11;64.52
32251;BME280;41295;48.518;9.206;2023-03-13T01:36:00;96669.75;;;9.13;64.76
32251;BME280;41295;48.518;9.206;2023-03-13T01:38:03;96663.63;;;9.14;64.57
32251;BME280;41295;48.518;9.206;2023-03-13T01:40:07;96660.81;;;9.19;64.51
32251;BME280;41295;48.518;9.206;2023-03-13T01:42:10;96659.84;;;9.21;64.44
32251;BME280;41295;48.518;9.206;2023-03-13T01:44:20;96658.22;;;9.19;64.50
32251;BME280;41295;48.518;9.206;2023-03-13T01:46:24;96658.84;;;9.24;64.32
32251;BME280;41295;48.518;9.206;2023-03-13T01:48:35;96644.19;;;9.23;64.32
32251;BME280;41295;48.518;9.206;2023-03-13T01:50:38;96636.38;;;9.23;64.35
32251;BME280;41295;48.518;9.206;2023-03-13T01:52:41;96630.25;;;9.24;64.63
32251;BME280;41295;48.518;9.206;2023-03-13T01:54:45;96633.69;;;9.24;64.40
32251;BME280;41295;48.518;9.206;2023-03-13T01:56:52;96635.19;;;9.30;64.14
32251;BME280;41295;48.518;9.206;2023-03-13T01:58:56;96632.13;;;9.41;64.26
32251;BME280;41295;48.518;9.206;2023-03-13T02:01:00;96617.66;;;9.55;63.92
32251;BME280;41295;48.518;9.206;2023-03-13T02:03:06;96620.13;;;9.58;63.98
32251;BME280;41295;48.518;9.206;2023-03-13T02:05:13;96609.16;;;9.51;64.33
32251;BME280;41295;48.518;9.206;2023-03-13T02:07:19;96600.56;;;9.49;64.34
32251;BME280;41295;48.518;9.206;2023-03-13T02:09:25;96607.47;;;9.50;64.56
32251;BME280;41295;48.518;9.206;2023-03-13T02:11:36;96605.22;;;9.61;64.54
32251;BME280;41295;48.518;9.206;2023-03-13T02:13:41;96596.06;;;9.53;64.64
32251;BME280;41295;48.518;9.206;2023-03-13T02:15:45;96595.50;;;9.65;64.52
32251;BME280;41295;48.518;9.206;2023-03-13T02:17:49;96593.97;;;9.61;64.94
32251;BME280;41295;48.518;9.206;2023-03-13T02:19:52;96593.97;;;9.61;65.22
32251;BME280;41295;48.518;9.206;2023-03-13T02:22:01;96587.38;;;9.73;64.83
32251;BME280;41295;48.518;9.206;2023-03-13T02:24:13;96586.44;;;9.74;64.94
32251;BME280;41295;48.518;9.206;2023-03-13T02:26:20;96584.91;;;9.70;65.05
32251;BME280;41295;48.518;9.206;2023-03-13T02:28:24;96584.56;;;9.97;65.08
32251;BME280;41295;48.518;9.206;2023-03-13T02:30:28;96588.38;;;9.90;65.31
32251;BME280;41295;48.518;9.206;2023-03-13T02:32:33;96586.94;;;10.02;65.24
32251;BME280;41295;48.518;9.206;2023-03-13T02:34:38;96588.69;;;10.01;65.38
32251;BME280;41295;48.518;9.206;2023-03-13T02:36:43;96579.41;;;10.15;65.53
32251;BME280;41295;48.518;9.206;2023-03-13T02:38:50;96579.38;;;10.34;64.78
32251;BME280;41295;48.518;9.206;2023-03-13T02:40:55;96575.06;;;10.33;64.98
32251;BME280;41295;48.518;9.206;2023-03-13T02:43:06;96567.56;;;10.27;65.26
32251;BME280;41295;48.518;9.206;2023-03-13T02:45:13;96557.66;;;10.53;64.38
32251;BME280;41295;48.518;9.206;2023-03-13T02:47:19;96554.22;;;10.33;65.14
32251;BME280;41295;48.518;9.206;2023-03-13T02:49:23;96553.94;;;10.39;65.00
32251;BME280;41295;48.518;9.206;2023-03-13T02:51:31;96550.28;;;10.24;65.26
32251;BME280;41295;48.518;9.206;2023-03-13T02:53:36;96554.91;;;10.37;65.16
32251;BME280;41295;48.518;9.206;2023-03-13T02:55:40;96542.03;;;10.33;65.61
32251;BME280;41295;48.518;9.206;2023-03-13T02:57:43;96529.94;;;10.32;65.91
32251;BME280;41295;48.518;9.206;2023-03-13T02:59:47;96528.56;;;10.43;65.71
32251;BME280;41295;48.518;9.206;2023-03-13T03:01:50;96523.47;;;10.59;65.22
32251;BME280;41295;48.518;9.206;2023-03-13T03:03:53;96519.78;;;10.63;64.94
32251;BME280;41295;48.518;9.206;2023-03-13T03:05:56;96524.53;;;10.73;64.87
32251;BME280;41295;48.518;9.206;2023-03-13T03:07:58;96519.47;;;10.69;65.20
32251;BME280;41295;48.518;9.206;2023-03-13T03:10:01;96517.50;;;10.75;65.06
32251;BME280;41295;48.518;9.206;2023-03-13T03:12:04;96502.69;;;10.75;65.11
32251;BME280;41295;48.518;9.206;2023-03-13T03:14:07;96500.88;;;10.93;64.63
32251;BME280;41295;48.518;9.206;2023-03-13T03:16:14;96498.16;;;10.79;64.77
32251;BME280;41295;48.518;9.206;2023-03-13T03:18:19;96500.00;;;10.77;64.99
32251;BME280;41295;48.518;9.206;2023-03-13T03:20:21;96488.47;;;10.81;64.83
32251;BME280;41295;48.518;9.206;2023-03-13T03:22:24;96495.47;;;10.80;64.78
32251;BME280;41295;48.518;9.206;2023-03-13T03:24:26;96487.63;;;10.98;64.34
32251;BME280;41295;48.518;9.206;2023-03-13T03:26:29;96487.47;;;11.01;64.15
32251;BME280;41295;48.518;9.206;2023-03-13T03:28:32;96484.25;;;10.96;64.22
32251;BME280;41295;48.518;9.206;2023-03-13T03:30:35;96484.00;;;11.01;64.08
32251;BME280;41295;48.518;9.206;2023-03-13T03:32:41;96466.44;;;11.21;63.27
32251;BME280;41295;48.518;9.206;2023-03-13T03:34:44;96464.28;;;11.13;63.58
32251;BME280;41295;48.518;9.206;2023-03-13T03:36:47;96473.34;;;11.05;63.78
32251;BME280;41295;48.518;9.206;2023-03-13T03:38:50;96468.72;;;11.11;63.57
32251;BME280;41295;48.518;9.206;2023-03-13T03:40:52;96475.69;;;11.10;63.76
32251;BME280;41295;48.518;9.206;2023-03-13T03:42:55;96475.91;;;11.23;63.00
32251;BME280;41295;48.518;9.206;2023-03-13T03:44:57;96466.44;;;11.21;63.42
32251;BME280;41295;48.518;9.206;2023-03-13T03:47:00;96491.13;;;11.31;62.75
32251;BME280;41295;48.518;9.206;2023-03-13T03:49:04;96497.25;;;11.14;63.51
32251;BME280;41295;48.518;9.206;2023-03-13T03:51:07;96493.75;;;11.31;62.96
32251;BME280;41295;48.518;9.206;2023-03-13T03:53:10;96492.97;;;11.13;64.08
32251;BME280;41295;48.518;9.206;2023-03-13T03:55:12;96491.88;;;11.17;63.74
32251;BME280;41295;48.518;9.206;2023-03-13T03:57:15;96494.34;;;11.20;64.18
32251;BME280;41295;48.518;9.206;2023-03-13T03:59:17;96496.47;;;11.12;64.11
32251;BME280;41295;48.518;9.206;2023-03-13T04:01:20;96493.97;;;11.10;64.23
32251;BME280;41295;48.518;9.206;2023-03-13T04:03:23;96498.28;;;11.11;64.37
32251;BME280;41295;48.518;9.206;2023-03-13T04:05:27;96497.88;;;11.01;64.76
32251;BME280;41295;48.518;9.206;2023-03-13T04:07:30;96492.41;;;10.90;65.03
32251;BME280;41295;48.518;9.206;2023-03-13T04:09:33;96500.19;;;11.07;64.90
32251;BME280;41295;48.518;9.206;2023-03-13T04:11:36;96494.56;;;11.15;64.65
32251;BME280;41295;48.518;9.206;2023-03-13T04:13:38;96488.84;;;10.91;65.44
32251;BME280;41295;48.518;9.206;2023-03-13T04:15:41;96486.69;;;10.99;65.36
32251;BME280;41295;48.518;9.206;2023-03-13T04:17:44;96487.88;;;11.10;65.09
32251;BME280;41295;48.518;9.206;2023-03-13T04:19:46;96484.16;;;10.98;65.31
32251;BME280;41295;48.518;9.206;2023-03-13T04:21:50;96480.06;;;11.10;65.18
32251;BME280;41295;48.518;9.206;2023-03-13T04:23:53;96487.47;;;11.01;65.48
32251;BME280;41295;48.518;9.206;2023-03-13T04:25:55;96488.06;;;11.06;65.33
32251;BME280;41295;48.518;9.206;2023-03-13T04:27:58;96484.38;;;11.11;65.44
32251;BME280;41295;48.518;9.206;2023-03-13T04:30:01;96478.38;;;11.09;65.39
32251;BME280;41295;48.518;9.206;2023-03-13T04:32:04;96479.91;;;11.13;65.43
32251;BME280;41295;48.518;9.206;2023-03-13T04:34:06;96477.09;;;11.00;65.78
32251;BME280;41295;48.518;9.206;2023-03-13T04:36:09;96481.34;;;10.85;66.09
32251;BME280;41295;48.518;9.206;2023-03-13T04:38:13;96478.91;;;10.81;66.33
32251;BME280;41295;48.518;9.206;2023-03-13T04:40:15;96469.69;;;10.74;66.79
32251;BME280;41295;48.518;9.206;2023-03-13T04:42:18;96469.78;;;10.73;66.52
32251;BME280;41295;48.518;9.206;2023-03-13T04:44:21;96467.81;;;10.94;66.21
32251;BME280;41295;48.518;9.206;2023-03-13T04:46:24;96456.03;;;10.87;66.22
32251;BME280;41295;48.518;9.206;2023-03-13T04:48:26;96453.06;;;10.77;66.51
32251;BME280;41295;48.518;9.206;2023-03-13T04:50:29;96461.25;;;10.87;66.39
32251;BME280;41295;48.518;9.206;2023-03-13T04:52:31;96457.66;;;10.89;65.84
32251;BME280;41295;48.518;9.206;2023-03-13T04:54:35;96460.47;;;10.85;66.03
32251;BME280;41295;48.518;9.206;2023-03-13T04:56:38;96460.78;;;10.96;66.19
32251;BME280;41295;48.518;9.206;2023-03-13T04:58:44;96453.41;;;10.87;65.98
32251;BME280;41295;48.518;9.206;2023-03-13T05:00:47;96449.78;;;11.07;65.61
32251;BME280;41295;48.518;9.206;2023-03-13T05:02:50;96447.25;;;11.05;65.29
32251;BME280;41295;48.518;9.206;2023-03-13T05:04:53;96442.03;;;11.05;65.20
32251;BME280;41295;48.518;9.206;2023-03-13T05:06:56;96444.56;;;11.07;65.38
32251;BME280;41295;48.518;9.206;2023-03-13T05:08:58;96448.16;;;11.04;65.30
32251;BME280;41295;48.518;9.206;2023-03-13T05:11:03;96443.97;;;11.02;65.37
32251;BME280;41295;48.518;9.206;2023-03-13T05:13:08;96439.16;;;11.10;65.48
32251;BME280;41295;48.518;9.206;2023-03-13T05:15:11;96441.59;;;11.13;65.06
32251;BME280;41295;48.518;9.206;2023-03-13T05:17:13;96443.91;;;11.19;65.13
32251;BME280;41295;48.518;9.206;2023-03-13T05:19:16;96434.31;;;11.20;64.80
32251;BME280;41295;48.518;9.206;2023-03-13T05:21:18;96438.31;;;11.10;65.23
32251;BME280;41295;48.518;9.206;2023-03-13T05:23:21;96433.97;;;11.26;64.81
32251;BME280;41295;48.518;9.206;2023-03-13T05:25:24;96436.34;;;11.15;65.28
32251;BME280;41295;48.518;9.206;2023-03-13T05:27:28;96438.69;;;11.36;64.55
32251;BME280;41295;48.518;9.206;2023-03-13T05:29:30;96446.63;;;11.34;64.98
32251;BME280;41295;48.518;9.206;2023-03-13T05:31:33;96445.47;;;11.06;65.16
32251;BME280;41295;48.518;9.206;2023-03-13T05:33:35;96446.94;;;11.28;65.11
32251;BME280;41295;48.518;9.206;2023-03-13T05:35:38;96453.44;;;11.37;64.84
32251;BME280;41295;48.518;9.206;2023-03-13T05:37:41;96449.16;;;11.52;64.34
32251;BME280;41295;48.518;9.206;2023-03-13T05:39:44;96444.69;;;11.38;64.77
32251;BME280;41295;48.518;9.206;2023-03-13T05:41:46;96451.31;;;11.43;64.49
32251;BME280;41295;48.518;9.206;2023-03-13T05:43:50;96438.53;;;11.55;64.44
32251;BME280;41295;48.518;9.206;2023-03-13T05:45:53;96444.44;;;11.59;64.30
32251;BME280;41295;48.518;9.206;2023-03-13T05:47:56;96440.81;;;11.45;64.76
32251;BME280;41295;48.518;9.206;2023-03-13T05:49:59;96437.09;;;11.49;64.29
32251;BME280;41295;48.518;9.206;2023-03-13T05:52:01;96447.88;;;11.43;64.67
32251;BME280;41295;48.518;9.206;2023-03-13T05:54:04;96445.94;;;11.47;64.78
32251;BME280;41295;48.518;9.206;2023-03-13T05:56:07;96434.66;;;11.46;64.79
32251;BME280;41295;48.518;9.206;2023-03-13T05:58:09;96433.13;;;11.42;65.20
32251;BME280;41295;48.518;9.206;2023-03-13T06:00:15;96441.22;;;11.37;65.48
32251;BME280;41295;48.518;9.206;2023-03-13T06:02:18;96432.97;;;11.29;65.66
32251;BME280;41295;48.518;9.206;2023-03-13T06:04:21;96433.66;;;11.33;65.80
32251;BME280;41295;48.518;9.206;2023-03-13T06:06:24;96438.53;;;11.39;65.63
32251;BME280;41295;48.518;9.206;2023-03-13T06:08:26;96448.38;;;11.50;65.72
32251;BME280;41295;48.518;9.206;2023-03-13T06:10:29;96438.44;;;11.57;65.65
32251;BME280;41295;48.518;9.206;2023-03-13T06:12:31;96433.72;;;11.47;66.29
32251;BME280;41295;48.518;9.206;2023-03-13T06:14:34;96436.75;;;11.72;65.69
32251;BME280;41295;48.518;9.206;2023-03-13T06:16:39;96431.47;;;11.57;66.06
32251;BME280;41295;48.518;9.206;2023-03-13T06:18:42;96429.63;;;11.59;66.11
32251;BME280;41295;48.518;9.206;2023-03-13T06:20:44;96431.28;;;11.60;66.07
32251;BME280;41295;48.518;9.206;2023-03-13T06:22:47;96427.69;;;11.47;66.39
32251;BME280;41295;48.518;9.206;2023-03-13T06:24:49;96424.47;;;11.58;66.29
32251;BME280;41295;48.518;9.206;2023-03-13T06:26:52;96425.38;;;11.57;66.64
32251;BME280;41295;48.518;9.206;2023-03-13T06:28:55;96426.91;;;11.61;66.14
32251;BME280;41295;48.518;9.206;2023-03-13T06:31:00;96428.50;;;11.63;66.58
32251;BME280;41295;48.518;9.206;2023-03-13T06:33:04;96413.06;;;11.75;66.04
32251;BME280;41295;48.518;9.206;2023-03-13T06:35:08;96427.22;;;11.71;66.34
32251;BME280;41295;48.518;9.206;2023-03-13T06:37:11;96428.25;;;11.68;66.45
32251;BME280;41295;48.518;9.206;2023-03-13T06:39:14;96448.09;;;11.87;65.63
32251;BME280;41295;48.518;9.206;2023-03-13T06:41:16;96423.09;;;11.83;66.13
32251;BME280;41295;48.518;9.206;2023-03-13T06:43:19;96433.22;;;11.73;66.64
32251;BME280;41295;48.518;9.206;2023-03-13T06:45:22;96434.06;;;11.73;66.11
32251;BME280;41295;48.518;9.206;2023-03-13T06:47:25;96436.31;;;11.79;66.36
32251;BME280;41295;48.518;9.206;2023-03-13T06:49:29;96448.97;;;11.71;66.85
32251;BME280;41295;48.518;9.206;2023-03-13T06:51:31;96439.69;;;11.82;66.49
32251;BME280;41295;48.518;9.206;2023-03-13T06:53:34;96446.75;;;11.79;66.63
32251;BME280;41295;48.518;9.206;2023-03-13T06:55:37;96451.75;;;11.68;67.11
32251;BME280;41295;48.518;9.206;2023-03-13T06:57:39;96446.66;;;11.81;66.84
32251;BME280;41295;48.518;9.206;2023-03-13T06:59:42;96436.66;;;11.89;66.53
32251;BME280;41295;48.518;9.206;2023-03-13T07:01:44;96432.44;;;11.87;66.92
32251;BME280;41295;48.518;9.206;2023-03-13T07:03:47;96437.53;;;11.74;67.41
32251;BME280;41295;48.518;9.206;2023-03-13T07:05:55;96429.50;;;11.77;67.51
32251;BME280;41295;48.518;9.206;2023-03-13T07:07:58;96424.97;;;11.81;67.38
32251;BME280;41295;48.518;9.206;2023-03-13T07:10:01;96429.06;;;11.69;67.96
32251;BME280;41295;48.518;9.206;2023-03-13T07:12:05;96432.31;;;11.74;67.65
32251;BME280;41295;48.518;9.206;2023-03-13T07:14:08;96428.25;;;11.68;68.46
32251;BME280;41295;48.518;9.206;2023-03-13T07:16:17;96433.97;;;11.59;68.65
32251;BME280;41295;48.518;9.206;2023-03-13T07:18:21;96425.78;;;11.81;68.08
32251;BME280;41295;48.518;9.206;2023-03-13T07:20:23;96428.34;;;11.83;68.46
32251;BME280;41295;48.518;9.206;2023-03-13T07:22:27;96436.47;;;11.93;67.98
32251;BME280;41295;48.518;9.206;2023-03-13T07:24:30;96429.91;;;11.85;68.24
32251;BME280;41295;48.518;9.206;2023-03-13T07:26:32;96441.22;;;11.86;68.62
32251;BME280;41295;48.518;9.206;2023-03-13T07:28:35;96451.47;;;11.89;68.36
32251;BME280;41295;48.518;9.206;2023-03-13T07:30:38;96447.88;;;11.75;68.73
32251;BME280;41295;48.518;9.206;2023-03-13T07:32:41;96440.06;;;11.59;69.39
32251;BME280;41295;48.518;9.206;2023-03-13T07:34:43;96446.63;;;11.66;69.55
32251;BME280;41295;48.518;9.206;2023-03-13T07:36:46;96449.38;;;11.79;69.53
32251;BME280;41295;48.518;9.206;2023-03-13T07:38:51;96442.38;;;11.80;69.81
32251;BME280;41295;48.518;9.206;2023-03-13T07:40:55;96443.03;;;12.00;68.96
32251;BME280;41295;48.518;9.206;2023-03-13T07:42:57;96442.84;;;12.03;68.94
32251;BME280;41295;48.518;9.206;2023-03-13T07:45:00;96451.06;;;12.13;68.38
32251;BME280;41295;48.518;9.206;2023-03-13T07:47:03;96446.22;;;12.05;68.94
32251;BME280;41295;48.518;9.206;2023-03-13T07:49:06;96440.00;;;12.08;69.22
32251;BME280;41295;48.518;9.206;2023-03-13T07:51:11;96439.56;;;12.15;69.23
32251;BME280;41295;48.518;9.206;2023-03-13T07:53:14;96436.63;;;12.06;69.14
32251;BME280;41295;48.518;9.206;2023-03-13T07:55:22;96450.78;;;12.18;69.06
32251;BME280;41295;48.518;9.206;2023-03-13T07:57:25;96435.69;;;12.23;69.28
32251;BME280;41295;48.518;9.206;2023-03-13T07:59:28;96428.53;;;12.10;69.92
32251;BME280;41295;48.518;9.206;2023-03-13T08:01:30;96437.16;;;12.12;70.33
32251;BME280;41295;48.518;9.206;2023-03-13T08:03:33;96432.63;;;12.31;69.68
32251;BME280;41295;48.518;9.206;2023-03-13T08:05:36;96423.94;;;12.30;69.58
32251;BME280;41295;48.518;9.206;2023-03-13T08:07:38;96426.88;;;12.24;70.22
32251;BME280;41295;48.518;9.206;2023-03-13T08:09:41;96416.19;;;12.29;70.27
32251;BME280;41295;48.518;9.206;2023-03-13T08:11:45;96416.38;;;12.25;69.85
32251;BME280;41295;48.518;9.206;2023-03-13T08:13:49;96426.13;;;12.38;69.68
32251;BME280;41295;48.518;9.206;2023-03-13T08:15:52;96405.53;;;12.32;69.97
32251;BME280;41295;48.518;9.206;2023-03-13T08:17:55;96422.59;;;12.54;69.55
32251;BME280;41295;48.518;9.206;2023-03-13T08:19:57;96408.22;;;12.61;69.25
32251;BME280;41295;48.518;9.206;2023-03-13T08:22:01;96408.00;;;12.49;69.27
32251;BME280;41295;48.518;9.206;2023-03-13T08:24:05;96407.88;;;12.36;69.96
32251;BME280;41295;48.518;9.206;2023-03-13T08:26:10;96397.72;;;12.46;69.89
32251;BME280;41295;48.518;9.206;2023-03-13T08:28:14;96394.06;;;12.49;69.97
32251;BME280;41295;48.518;9.206;2023-03-13T08:30:17;96396.16;;;12.58;69.97
32251;BME280;41295;48.518;9.206;2023-03-13T08:32:20;96388.84;;;12.49;69.65
32251;BME280;41295;48.518;9.206;2023-03-13T08:34:23;96380.00;;;12.51;69.99
32251;BME280;41295;48.518;9.206;2023-03-13T08:36:27;96385.22;;;12.51;70.43
32251;BME280;41295;48.518;9.206;2023-03-13T08:38:31;96375.03;;;12.61;70.02
32251;BME280;41295;48.518;9.206;2023-03-13T08:40:33;96371.13;;;12.69;69.86
32251;BME280;41295;48.518;9.206;2023-03-13T08:42:37;96368.44;;;12.56;70.30
32251;BME280;41295;48.518;9.206;2023-03-13T08:44:42;96373.09;;;12.65;69.97
32251;BME280;41295;48.518;9.206;2023-03-13T08:46:44;96371.22;;;12.67;69.48
32251;BME280;41295;48.518;9.206;2023-03-13T08:48:49;96372.81;;;12.70;69.85
32251;BME280;41295;48.518;9.206;2023-03-13T08:50:59;96367.59;;;12.70;69.35
32251;BME280;41295;48.518;9.206;2023-03-13T08:53:02;96360.75;;;12.67;69.98
32251;BME280;41295;48.518;9.206;2023-03-13T08:55:06;96359.34;;;12.76;69.58
32251;BME280;41295;48.518;9.206;2023-03-13T08:57:09;96363.00;;;12.73;69.84
32251;BME280;41295;48.518;9.206;2023-03-13T08:59:11;96359.53;;;12.87;69.29
32251;BME280;41295;48.518;9.206;2023-03-13T09:01:17;96358.22;;;12.95;69.27
32251;BME280;41295;48.518;9.206;2023-03-13T09:03:20;96356.38;;;12.82;69.57
32251;BME280;41295;48.518;9.206;2023-03-13T09:05:22;96371.66;;;13.03;69.08
32251;BME280;41295;48.518;9.206;2023-03-13T09:07:25;96364.66;;;13.04;68.81
32251;BME280;41295;48.518;9.206;2023-03-13T09:09:28;96375.50;;;12.97;69.03
32251;BME280;41295;48.518;9.206;2023-03-13T09:11:30;96365.31;;;13.07;68.42
32251;BME280;41295;48.518;9.206;2023-03-13T09:13:35;96354.66;;;13.10;68.92
32251;BME280;41295;48.518;9.206;2023-03-13T09:15:38;96368.69;;;13.09;68.84
32251;BME280;41295;48.518;9.206;2023-03-13T09:17:42;96364.28;;;13.10;69.29
32251;BME280;41295;48.518;9.206;2023-03-13T09:19:45;96365.19;;;13.23;68.46
32251;BME280;41295;48.518;9.206;2023-03-13T09:22:00;96369.06;;;13.03;69.22
32251;BME280;41295;48.518;9.206;2023-03-13T09:24:03;96363.50;;;13.22;68.70
32251;BME280;41295;48.518;9.206;2023-03-13T09:26:06;96363.97;;;13.29;68.11
32251;BME280;41295;48.518;9.206;2023-03-13T09:28:08;96372.66;;;13.30;68.34
32251;BME280;41295;48.518;9.206;2023-03-13T09:30:11;96357.50;;;13.20;68.95
32251;BME280;41295;48.518;9.206;2023-03-13T09:32:14;96372.28;;;13.36;68.59
32251;BME280;41295;48.518;9.206;2023-03-13T09:34:18;96374.69;;;13.39;68.25
32251;BME280;41295;48.518;9.206;2023-03-13T09:36:23;96372.72;;;13.43;67.98
32251;BME280;41295;48.518;9.206;2023-03-13T09:38:26;96373.47;;;13.59;67.77
32251;BME280;41295;48.518;9.206;2023-03-13T09:40:29;96374.09;;;13.63;67.13
32251;BME280;41295;48.518;9.206;2023-03-13T09:42:39;96383.84;;;13.74;66.28
32251;BME280;41295;48.518;9.206;2023-03-13T09:44:48;96369.31;;;13.83;66.34
32251;BME280;41295;48.518;9.206;2023-03-13T09:46:58;96375.66;;;13.93;65.32
32251;BME280;41295;48.518;9.206;2023-03-13T09:49:06;96370.31;;;13.95;65.31
32251;BME280;41295;48.518;9.206;2023-03-13T09:51:17;96374.22;;;14.02;65.33
32251;BME280;41295;48.518;9.206;2023-03-13T09:53:29;96397.19;;;14.25;64.35
32251;BME280;41295;48.518;9.206;2023-03-13T09:55:35;96386.50;;;14.15;63.89
32251;BME280;41295;48.518;9.206;2023-03-13T09:57:45;96379.47;;;14.15;64.47
32251;BME280;41295;48.518;9.206;2023-03-13T09:59:54;96379.16;;;14.20;62.77
32251;BME280;41295;48.518;9.206;2023-03-13T10:01:59;96371.94;;;14.37;61.64
32251;BME280;41295;48.518;9.206;2023-03-13T10:04:08;96359.00;;;14.21;62.53
32251;BME280;41295;48.518;9.206;2023-03-13T10:06:18;96357.78;;;14.39;62.57
32251;BME280;41295;48.518;9.206;2023-03-13T10:08:22;96349.28;;;14.23;63.20
32251;BME280;41295;48.518;9.206;2023-03-13T10:10:32;96354.94;;;14.16;64.05
32251;BME280;41295;48.518;9.206;2023-03-13T10:12:41;96354.66;;;14.47;62.99
32251;BME280;41295;48.518;9.206;2023-03-13T10:14:51;96354.84;;;14.57;60.82
32251;BME280;41295;48.518;9.206;2023-03-13T10:17:00;96357.56;;;14.55;60.46
32251;BME280;41295;48.518;9.206;2023-03-13T10:19:10;96359.25;;;14.57;60.13
32251;BME280;41295;48.518;9.206;2023-03-13T10:21:17;96361.06;;;14.56;61.02
32251;BME280;41295;48.518;9.206;2023-03-13T10:23:25;96344.53;;;14.67;60.75
32251;BME280;41295;48.518;9.206;2023-03-13T10:25:31;96337.41;;;14.69;59.28
32251;BME280;41295;48.518;9.206;2023-03-13T10:27:42;96326.94;;;14.82;59.05
32251;BME280;41295;48.518;9.206;2023-03-13T10:29:45;96363.88;;;14.79;58.99
32251;BME280;41295;48.518;9.206;2023-03-13T10:31:54;96332.25;;;14.81;58.67
32251;BME280;41295;48.518;9.206;2023-03-13T10:34:04;96339.94;;;14.97;58.04
32251;BME280;41295;48.518;9.206;2023-03-13T10:36:09;96316.59;;;15.05;57.39
32251;BME280;41295;48.518;9.206;2023-03-13T10:38:17;96340.22;;;15.05;57.60
32251;BME280;41295;48.518;9.206;2023-03-13T10:40:21;96328.56;;;15.09;57.36
32251;BME280;41295;48.518;9.206;2023-03-13T10:42:26;96312.69;;;15.11;56.88
32251;BME280;41295;48.518;9.206;2023-03-13T10:44:31;96299.03;;;15.19;56.74
32251;BME280;41295;48.518;9.206;2023-03-13T10:46:39;96304.09;;;15.09;57.06
32251;BME280;41295;48.518;9.206;2023-03-13T10:48:42;96296.28;;;15.20;57.08
32251;BME280;41295;48.518;9.206;2023-03-13T10:50:46;96309.44;;;15.07;57.87
32251;BME280;41295;48.518;9.206;2023-03-13T10:52:49;96316.16;;;15.11;58.03
32251;BME280;41295;48.518;9.206;2023-03-13T10:54:58;96289.03;;;15.24;57.53
32251;BME280;41295;48.518;9.206;2023-03-13T10:57:18;96285.28;;;15.15;58.27
32251;BME280;41295;48.518;9.206;2023-03-13T10:59:23;96285.16;;;15.17;58.50